sensor_id;sensor_type;location;lat;lon;timestamp;P1;durP1;ratioP1;P2;durP2;ratioP2
5454;SDS011;2750;49.050;9.250;2022-09-09T00:04:58;8.07;;;1.83;;
5454;SDS011;2750;49.050;9.250;2022-09-09T00:10:04;2.10;;;1.80;;
5454;SDS011;2750;49.050;9.250;2022-09-09T00:15:19;6.93;;;2.00;;
5454;SDS011;2750;49.050;9.250;2022-09-09T00:20:25;4.93;;;1.90;;
5454;SDS011;2750;49.050;9.250;2022-09-09T00:25:34;5.53;;;1.97;;
5454;SDS011;2750;49.050;9.250;2022-09-09T00:30:42;4.80;;;2.03;;
5454;SDS011;2750;49.050;9.250;2022-09-09T00:35:46;1.73;;;1.53;;
5454;SDS011;2750;49.050;9.250;2022-09-09T00:40:50;2.40;;;1.87;;
5454;SDS011;2750;49.050;9.250;2022-09-09T00:51:54;2.57;;;2.00;;
5454;SDS011;2750;49.050;9.250;2022-09-09T00:57:07;2.20;;;1.47;;
5454;SDS011;2750;49.050;9.250;2022-09-09T01:02:18;3.20;;;1.70;;
5454;SDS011;2750;49.050;9.250;2022-09-09T01:07:29;5.40;;;1.97;;
5454;SDS011;2750;49.050;9.250;2022-09-09T01:12:34;2.73;;;1.83;;
5454;SDS011;2750;49.050;9.250;2022-09-09T01:17:53;2.37;;;1.60;;
5454;SDS011;2750;49.050;9.250;2022-09-09T01:23:09;4.50;;;1.80;;
5454;SDS011;2750;49.050;9.250;2022-09-09T01:28:25;6.83;;;1.73;;
5454;SDS011;2750;49.050;9.250;2022-09-09T01:33:29;5.17;;;2.13;;
5454;SDS011;2750;49.050;9.250;2022-09-09T01:38:31;3.47;;;1.70;;
5454;SDS011;2750;49.050;9.250;2022-09-09T01:43:35;5.70;;;2.00;;
5454;SDS011;2750;49.050;9.250;2022-09-09T01:48:37;4.60;;;2.03;;
5454;SDS011;2750;49.050;9.250;2022-09-09T01:53:38;2.63;;;1.60;;
5454;SDS011;2750;49.050;9.250;2022-09-09T01:58:47;2.83;;;1.80;;
5454;SDS011;2750;49.050;9.250;2022-09-09T02:04:02;2.40;;;1.77;;
5454;SDS011;2750;49.050;9.250;2022-09-09T02:09:11;3.77;;;2.30;;
5454;SDS011;2750;49.050;9.250;2022-09-09T02:14:16;5.27;;;1.93;;
5454;SDS011;2750;49.050;9.250;2022-09-09T02:19:23;6.53;;;2.00;;
5454;SDS011;2750;49.050;9.250;2022-09-09T02:24:31;2.43;;;1.60;;
5454;SDS011;2750;49.050;9.250;2022-09-09T02:29:38;4.43;;;1.77;;
5454;SDS011;2750;49.050;9.250;2022-09-09T02:34:42;5.83;;;1.70;;
5454;SDS011;2750;49.050;9.250;2022-09-09T02:39:46;3.73;;;1.87;;
5454;SDS011;2750;49.050;9.250;2022-09-09T02:44:49;2.80;;;2.07;;
5454;SDS011;2750;49.050;9.250;2022-09-09T02:49:53;4.53;;;2.20;;
5454;SDS011;2750;49.050;9.250;2022-09-09T02:55:05;3.60;;;2.03;;
5454;SDS011;2750;49.050;9.250;2022-09-09T03:00:14;5.67;;;2.00;;
5454;SDS011;2750;49.050;9.250;2022-09-09T03:05:16;2.10;;;1.80;;
5454;SDS011;2750;49.050;9.250;2022-09-09T03:10:17;4.87;;;2.27;;
5454;SDS011;2750;49.050;9.250;2022-09-09T03:15:20;4.97;;;2.30;;
5454;SDS011;2750;49.050;9.250;2022-09-09T03:20:22;4.70;;;2.30;;
5454;SDS011;2750;49.050;9.250;2022-09-09T03:25:26;2.53;;;2.03;;
5454;SDS011;2750;49.050;9.250;2022-09-09T03:30:30;3.30;;;2.03;;
5454;SDS011;2750;49.050;9.250;2022-09-09T03:35:31;3.60;;;1.90;;
5454;SDS011;2750;49.050;9.250;2022-09-09T03:40:33;2.27;;;1.80;;
5454;SDS011;2750;49.050;9.250;2022-09-09T03:45:36;3.73;;;2.20;;
5454;SDS011;2750;49.050;9.250;2022-09-09T03:50:37;4.97;;;2.20;;
5454;SDS011;2750;49.050;9.250;2022-09-09T03:55:39;4.03;;;1.87;;
5454;SDS011;2750;49.050;9.250;2022-09-09T04:00:47;6.33;;;2.00;;
5454;SDS011;2750;49.050;9.250;2022-09-09T04:05:55;4.50;;;1.90;;
5454;SDS011;2750;49.050;9.250;2022-09-09T04:10:58;3.73;;;2.17;;
5454;SDS011;2750;49.050;9.250;2022-09-09T04:16:03;4.57;;;1.90;;
5454;SDS011;2750;49.050;9.250;2022-09-09T04:21:05;3.50;;;2.13;;
5454;SDS011;2750;49.050;9.250;2022-09-09T04:26:08;4.13;;;2.10;;
5454;SDS011;2750;49.050;9.250;2022-09-09T04:31:13;5.43;;;2.43;;
5454;SDS011;2750;49.050;9.250;2022-09-09T04:36:18;2.83;;;1.90;;
5454;SDS011;2750;49.050;9.250;2022-09-09T04:41:20;6.43;;;2.60;;
5454;SDS011;2750;49.050;9.250;2022-09-09T04:46:23;5.60;;;2.50;;
5454;SDS011;2750;49.050;9.250;2022-09-09T04:51:25;4.07;;;2.70;;
5454;SDS011;2750;49.050;9.250;2022-09-09T04:56:26;7.30;;;2.47;;
5454;SDS011;2750;49.050;9.250;2022-09-09T05:01:29;5.40;;;3.00;;
5454;SDS011;2750;49.050;9.250;2022-09-09T05:06:32;6.43;;;2.43;;
5454;SDS011;2750;49.050;9.250;2022-09-09T05:11:34;3.53;;;2.53;;
5454;SDS011;2750;49.050;9.250;2022-09-09T05:16:39;7.13;;;3.57;;
5454;SDS011;2750;49.050;9.250;2022-09-09T05:21:40;7.53;;;2.90;;
5454;SDS011;2750;49.050;9.250;2022-09-09T05:26:42;4.07;;;2.57;;
5454;SDS011;2750;49.050;9.250;2022-09-09T05:31:45;4.27;;;2.13;;
5454;SDS011;2750;49.050;9.250;2022-09-09T05:36:47;2.80;;;2.13;;
5454;SDS011;2750;49.050;9.250;2022-09-09T05:41:48;3.23;;;2.00;;
5454;SDS011;2750;49.050;9.250;2022-09-09T05:46:52;6.33;;;2.30;;
5454;SDS011;2750;49.050;9.250;2022-09-09T05:51:54;4.10;;;2.43;;
5454;SDS011;2750;49.050;9.250;2022-09-09T05:56:55;4.50;;;2.47;;
5454;SDS011;2750;49.050;9.250;2022-09-09T06:01:58;5.20;;;2.57;;
5454;SDS011;2750;49.050;9.250;2022-09-09T06:07:00;4.50;;;2.60;;
5454;SDS011;2750;49.050;9.250;2022-09-09T06:12:02;3.00;;;1.93;;
5454;SDS011;2750;49.050;9.250;2022-09-09T06:17:05;4.47;;;2.37;;
5454;SDS011;2750;49.050;9.250;2022-09-09T06:22:06;3.33;;;2.13;;
5454;SDS011;2750;49.050;9.250;2022-09-09T06:27:09;4.40;;;2.00;;
5454;SDS011;2750;49.050;9.250;2022-09-09T06:32:12;3.87;;;2.17;;
5454;SDS011;2750;49.050;9.250;2022-09-09T06:37:13;2.80;;;1.80;;
5454;SDS011;2750;49.050;9.250;2022-09-09T06:42:15;4.93;;;1.73;;
5454;SDS011;2750;49.050;9.250;2022-09-09T06:47:18;3.03;;;1.90;;
5454;SDS011;2750;49.050;9.250;2022-09-09T06:52:20;5.17;;;2.07;;
5454;SDS011;2750;49.050;9.250;2022-09-09T06:57:21;3.20;;;1.93;;
5454;SDS011;2750;49.050;9.250;2022-09-09T07:02:24;3.93;;;2.00;;
5454;SDS011;2750;49.050;9.250;2022-09-09T07:07:25;3.47;;;1.93;;
5454;SDS011;2750;49.050;9.250;2022-09-09T07:12:27;4.97;;;2.00;;
5454;SDS011;2750;49.050;9.250;2022-09-09T07:17:30;4.07;;;1.63;;
5454;SDS011;2750;49.050;9.250;2022-09-09T07:22:31;2.40;;;1.53;;
5454;SDS011;2750;49.050;9.250;2022-09-09T07:27:33;3.53;;;1.88;;
5454;SDS011;2750;49.050;9.250;2022-09-09T07:32:36;5.00;;;2.00;;
5454;SDS011;2750;49.050;9.250;2022-09-09T07:37:37;4.85;;;1.90;;
5454;SDS011;2750;49.050;9.250;2022-09-09T07:42:39;2.00;;;1.17;;
5454;SDS011;2750;49.050;9.250;2022-09-09T07:47:41;3.60;;;1.58;;
5454;SDS011;2750;49.050;9.250;2022-09-09T07:52:43;3.70;;;1.55;;
5454;SDS011;2750;49.050;9.250;2022-09-09T07:57:44;6.68;;;2.22;;
5454;SDS011;2750;49.050;9.250;2022-09-09T08:02:47;6.45;;;1.60;;
5454;SDS011;2750;49.050;9.250;2022-09-09T08:07:49;4.78;;;1.60;;
5454;SDS011;2750;49.050;9.250;2022-09-09T08:12:50;3.08;;;1.30;;
5454;SDS011;2750;49.050;9.250;2022-09-09T08:17:53;6.43;;;1.70;;
5454;SDS011;2750;49.050;9.250;2022-09-09T08:22:56;4.47;;;1.67;;
5454;SDS011;2750;49.050;9.250;2022-09-09T08:27:58;8.77;;;2.00;;
5454;SDS011;2750;49.050;9.250;2022-09-09T08:33:01;6.82;;;1.65;;
5454;SDS011;2750;49.050;9.250;2022-09-09T08:38:03;4.88;;;1.58;;
5454;SDS011;2750;49.050;9.250;2022-09-09T08:43:04;6.28;;;1.58;;
5454;SDS011;2750;49.050;9.250;2022-09-09T08:48:17;3.28;;;1.67;;
5454;SDS011;2750;49.050;9.250;2022-09-09T08:53:33;2.40;;;1.13;;
5454;SDS011;2750;49.050;9.250;2022-09-09T08:58:40;3.47;;;1.48;;
5454;SDS011;2750;49.050;9.250;2022-09-09T09:03:50;3.63;;;1.40;;
5454;SDS011;2750;49.050;9.250;2022-09-09T09:09:01;5.35;;;1.85;;
5454;SDS011;2750;49.050;9.250;2022-09-09T09:14:08;3.35;;;1.70;;
5454;SDS011;2750;49.050;9.250;2022-09-09T09:19:14;3.00;;;1.42;;
5454;SDS011;2750;49.050;9.250;2022-09-09T09:24:18;3.60;;;1.40;;
5454;SDS011;2750;49.050;9.250;2022-09-09T09:29:23;4.18;;;1.35;;
5454;SDS011;2750;49.050;9.250;2022-09-09T09:34:27;3.33;;;1.35;;
5454;SDS011;2750;49.050;9.250;2022-09-09T09:39:29;4.90;;;1.80;;
5454;SDS011;2750;49.050;9.250;2022-09-09T09:44:36;2.42;;;1.40;;
5454;SDS011;2750;49.050;9.250;2022-09-09T09:49:39;6.63;;;1.50;;
5454;SDS011;2750;49.050;9.250;2022-09-09T09:54:51;5.93;;;1.70;;
5454;SDS011;2750;49.050;9.250;2022-09-09T10:00:00;5.07;;;1.70;;
5454;SDS011;2750;49.050;9.250;2022-09-09T10:05:12;5.72;;;1.48;;
5454;SDS011;2750;49.050;9.250;2022-09-09T10:10:16;3.77;;;1.47;;
5454;SDS011;2750;49.050;9.250;2022-09-09T10:15:26;4.00;;;1.70;;
5454;SDS011;2750;49.050;9.250;2022-09-09T10:20:37;4.27;;;2.00;;
5454;SDS011;2750;49.050;9.250;2022-09-09T10:25:51;8.63;;;2.90;;
5454;SDS011;2750;49.050;9.250;2022-09-09T10:31:11;4.03;;;2.00;;
5454;SDS011;2750;49.050;9.250;2022-09-09T10:36:24;5.10;;;2.33;;
5454;SDS011;2750;49.050;9.250;2022-09-09T10:41:33;3.27;;;2.00;;
5454;SDS011;2750;49.050;9.250;2022-09-09T10:46:46;8.17;;;2.10;;
5454;SDS011;2750;49.050;9.250;2022-09-09T10:52:15;7.43;;;2.87;;
5454;SDS011;2750;49.050;9.250;2022-09-09T10:57:25;3.67;;;1.70;;
5454;SDS011;2750;49.050;9.250;2022-09-09T11:02:30;6.93;;;1.97;;
5454;SDS011;2750;49.050;9.250;2022-09-09T11:07:35;4.60;;;1.67;;
5454;SDS011;2750;49.050;9.250;2022-09-09T11:12:40;4.43;;;1.60;;
5454;SDS011;2750;49.050;9.250;2022-09-09T11:17:48;4.00;;;1.50;;
5454;SDS011;2750;49.050;9.250;2022-09-09T11:22:57;3.30;;;1.53;;
5454;SDS011;2750;49.050;9.250;2022-09-09T11:28:08;2.73;;;1.40;;
5454;SDS011;2750;49.050;9.250;2022-09-09T11:33:29;2.03;;;1.20;;
5454;SDS011;2750;49.050;9.250;2022-09-09T11:38:45;3.33;;;1.20;;
5454;SDS011;2750;49.050;9.250;2022-09-09T11:43:51;0.97;;;0.90;;
5454;SDS011;2750;49.050;9.250;2022-09-09T11:48:58;1.90;;;0.90;;
5454;SDS011;2750;49.050;9.250;2022-09-09T11:54:02;1.67;;;0.90;;
5454;SDS011;2750;49.050;9.250;2022-09-09T11:59:26;1.60;;;1.00;;
5454;SDS011;2750;49.050;9.250;2022-09-09T12:04:30;1.30;;;0.80;;
5454;SDS011;2750;49.050;9.250;2022-09-09T12:09:43;1.13;;;0.70;;
5454;SDS011;2750;49.050;9.250;2022-09-09T12:14:57;1.73;;;1.00;;
5454;SDS011;2750;49.050;9.250;2022-09-09T12:20:02;2.07;;;1.00;;
5454;SDS011;2750;49.050;9.250;2022-09-09T12:25:14;2.03;;;0.90;;
5454;SDS011;2750;49.050;9.250;2022-09-09T12:30:23;1.97;;;1.07;;
5454;SDS011;2750;49.050;9.250;2022-09-09T12:35:32;1.40;;;0.80;;
5454;SDS011;2750;49.050;9.250;2022-09-09T12:40:34;1.92;;;1.10;;
5454;SDS011;2750;49.050;9.250;2022-09-09T12:45:37;1.45;;;0.98;;
5454;SDS011;2750;49.050;9.250;2022-09-09T12:50:43;2.33;;;0.77;;
5454;SDS011;2750;49.050;9.250;2022-09-09T12:55:49;1.45;;;0.70;;
5454;SDS011;2750;49.050;9.250;2022-09-09T13:00:54;1.48;;;0.75;;
5454;SDS011;2750;49.050;9.250;2022-09-09T13:05:57;2.38;;;1.08;;
5454;SDS011;2750;49.050;9.250;2022-09-09T13:11:01;2.28;;;1.05;;
5454;SDS011;2750;49.050;9.250;2022-09-09T13:16:22;3.17;;;1.40;;
5454;SDS011;2750;49.050;9.250;2022-09-09T13:21:33;1.90;;;1.02;;
5454;SDS011;2750;49.050;9.250;2022-09-09T13:26:35;1.65;;;0.82;;
5454;SDS011;2750;49.050;9.250;2022-09-09T13:31:39;1.73;;;0.90;;
5454;SDS011;2750;49.050;9.250;2022-09-09T13:36:41;1.73;;;1.00;;
5454;SDS011;2750;49.050;9.250;2022-09-09T13:41:48;2.60;;;1.10;;
5454;SDS011;2750;49.050;9.250;2022-09-09T13:47:00;2.78;;;1.30;;
5454;SDS011;2750;49.050;9.250;2022-09-09T13:52:06;2.38;;;1.23;;
5454;SDS011;2750;49.050;9.250;2022-09-09T13:57:14;2.25;;;1.15;;
5454;SDS011;2750;49.050;9.250;2022-09-09T14:02:18;2.05;;;0.82;;
5454;SDS011;2750;49.050;9.250;2022-09-09T14:07:21;1.63;;;1.10;;
5454;SDS011;2750;49.050;9.250;2022-09-09T14:12:23;1.23;;;1.00;;
5454;SDS011;2750;49.050;9.250;2022-09-09T14:17:28;3.80;;;1.58;;
5454;SDS011;2750;49.050;9.250;2022-09-09T14:22:31;4.30;;;1.25;;
5454;SDS011;2750;49.050;9.250;2022-09-09T14:27:32;3.58;;;1.20;;
5454;SDS011;2750;49.050;9.250;2022-09-09T14:32:35;2.13;;;1.03;;
5454;SDS011;2750;49.050;9.250;2022-09-09T14:37:37;3.60;;;1.50;;
5454;SDS011;2750;49.050;9.250;2022-09-09T14:42:39;2.85;;;1.33;;
5454;SDS011;2750;49.050;9.250;2022-09-09T14:47:42;1.70;;;1.10;;
5454;SDS011;2750;49.050;9.250;2022-09-09T14:52:44;2.33;;;0.90;;
5454;SDS011;2750;49.050;9.250;2022-09-09T14:57:45;1.58;;;1.10;;
5454;SDS011;2750;49.050;9.250;2022-09-09T15:02:48;2.65;;;1.10;;
5454;SDS011;2750;49.050;9.250;2022-09-09T15:07:53;2.27;;;0.90;;
5454;SDS011;2750;49.050;9.250;2022-09-09T15:12:54;1.73;;;1.00;;
5454;SDS011;2750;49.050;9.250;2022-09-09T15:17:58;2.63;;;1.20;;
5454;SDS011;2750;49.050;9.250;2022-09-09T15:22:59;2.23;;;1.20;;
5454;SDS011;2750;49.050;9.250;2022-09-09T15:28:00;1.57;;;1.00;;
5454;SDS011;2750;49.050;9.250;2022-09-09T15:33:08;2.60;;;1.13;;
5454;SDS011;2750;49.050;9.250;2022-09-09T15:38:09;2.23;;;1.13;;
5454;SDS011;2750;49.050;9.250;2022-09-09T15:43:13;5.00;;;1.27;;
5454;SDS011;2750;49.050;9.250;2022-09-09T15:48:15;3.33;;;1.10;;
5454;SDS011;2750;49.050;9.250;2022-09-09T15:53:17;1.43;;;1.00;;
5454;SDS011;2750;49.050;9.250;2022-09-09T15:58:21;2.73;;;1.10;;
5454;SDS011;2750;49.050;9.250;2022-09-09T16:03:24;1.77;;;0.80;;
5454;SDS011;2750;49.050;9.250;2022-09-09T16:08:30;2.63;;;0.87;;
5454;SDS011;2750;49.050;9.250;2022-09-09T16:13:33;0.80;;;0.80;;
5454;SDS011;2750;49.050;9.250;2022-09-09T16:18:36;1.80;;;1.00;;
5454;SDS011;2750;49.050;9.250;2022-09-09T16:23:39;1.50;;;0.90;;
5454;SDS011;2750;49.050;9.250;2022-09-09T16:28:41;2.63;;;1.40;;
5454;SDS011;2750;49.050;9.250;2022-09-09T16:33:44;2.00;;;1.03;;
5454;SDS011;2750;49.050;9.250;2022-09-09T16:38:46;4.70;;;1.60;;
5454;SDS011;2750;49.050;9.250;2022-09-09T16:43:51;1.90;;;1.23;;
5454;SDS011;2750;49.050;9.250;2022-09-09T16:48:56;3.03;;;0.97;;
5454;SDS011;2750;49.050;9.250;2022-09-09T16:53:59;2.00;;;1.10;;
5454;SDS011;2750;49.050;9.250;2022-09-09T16:59:03;1.80;;;1.00;;
5454;SDS011;2750;49.050;9.250;2022-09-09T17:04:08;2.93;;;0.90;;
5454;SDS011;2750;49.050;9.250;2022-09-09T17:09:11;2.40;;;0.80;;
5454;SDS011;2750;49.050;9.250;2022-09-09T17:14:14;0.70;;;0.70;;
5454;SDS011;2750;49.050;9.250;2022-09-09T17:19:18;2.43;;;0.80;;
5454;SDS011;2750;49.050;9.250;2022-09-09T17:24:19;0.83;;;0.63;;
5454;SDS011;2750;49.050;9.250;2022-09-09T17:29:21;2.03;;;0.87;;
5454;SDS011;2750;49.050;9.250;2022-09-09T17:34:24;0.70;;;0.70;;
5454;SDS011;2750;49.050;9.250;2022-09-09T17:39:26;0.80;;;0.60;;
5454;SDS011;2750;49.050;9.250;2022-09-09T17:44:28;2.20;;;0.60;;
5454;SDS011;2750;49.050;9.250;2022-09-09T17:49:33;1.13;;;0.90;;
5454;SDS011;2750;49.050;9.250;2022-09-09T17:54:34;1.57;;;0.90;;
5454;SDS011;2750;49.050;9.250;2022-09-09T17:59:36;2.77;;;0.70;;
5454;SDS011;2750;49.050;9.250;2022-09-09T18:04:39;2.53;;;0.90;;
5454;SDS011;2750;49.050;9.250;2022-09-09T18:09:41;3.53;;;1.13;;
5454;SDS011;2750;49.050;9.250;2022-09-09T18:14:43;1.10;;;0.90;;
5454;SDS011;2750;49.050;9.250;2022-09-09T18:19:46;1.07;;;0.93;;
5454;SDS011;2750;49.050;9.250;2022-09-09T18:24:49;4.27;;;1.20;;
5454;SDS011;2750;49.050;9.250;2022-09-09T18:29:51;2.37;;;1.07;;
5454;SDS011;2750;49.050;9.250;2022-09-09T18:34:54;1.13;;;0.80;;
5454;SDS011;2750;49.050;9.250;2022-09-09T18:39:58;2.37;;;1.23;;
5454;SDS011;2750;49.050;9.250;2022-09-09T18:45:00;1.87;;;1.03;;
5454;SDS011;2750;49.050;9.250;2022-09-09T18:50:04;2.13;;;1.13;;
5454;SDS011;2750;49.050;9.250;2022-09-09T18:55:06;1.40;;;1.30;;
5454;SDS011;2750;49.050;9.250;2022-09-09T19:00:09;3.27;;;1.23;;
5454;SDS011;2750;49.050;9.250;2022-09-09T19:05:13;1.10;;;1.00;;
5454;SDS011;2750;49.050;9.250;2022-09-09T19:10:14;1.57;;;0.90;;
5454;SDS011;2750;49.050;9.250;2022-09-09T19:15:16;1.13;;;1.00;;
5454;SDS011;2750;49.050;9.250;2022-09-09T19:20:19;1.77;;;1.10;;
5454;SDS011;2750;49.050;9.250;2022-09-09T19:25:22;2.23;;;1.27;;
5454;SDS011;2750;49.050;9.250;2022-09-09T19:30:24;1.40;;;1.20;;
5454;SDS011;2750;49.050;9.250;2022-09-09T19:35:27;3.17;;;1.67;;
5454;SDS011;2750;49.050;9.250;2022-09-09T19:40:29;3.77;;;1.53;;
5454;SDS011;2750;49.050;9.250;2022-09-09T19:45:30;2.53;;;1.30;;
5454;SDS011;2750;49.050;9.250;2022-09-09T19:50:35;2.03;;;1.60;;
5454;SDS011;2750;49.050;9.250;2022-09-09T19:55:37;3.10;;;1.50;;
5454;SDS011;2750;49.050;9.250;2022-09-09T20:00:39;2.97;;;1.60;;
5454;SDS011;2750;49.050;9.250;2022-09-09T20:05:42;2.67;;;1.37;;
5454;SDS011;2750;49.050;9.250;2022-09-09T20:10:50;3.50;;;1.83;;
5454;SDS011;2750;49.050;9.250;2022-09-09T20:15:57;2.47;;;1.50;;
5454;SDS011;2750;49.050;9.250;2022-09-09T20:21:02;3.80;;;2.13;;
5454;SDS011;2750;49.050;9.250;2022-09-09T20:26:06;4.57;;;2.10;;
5454;SDS011;2750;49.050;9.250;2022-09-09T20:31:10;5.77;;;2.20;;
5454;SDS011;2750;49.050;9.250;2022-09-09T20:36:15;2.47;;;1.50;;
5454;SDS011;2750;49.050;9.250;2022-09-09T20:41:20;1.80;;;1.57;;
5454;SDS011;2750;49.050;9.250;2022-09-09T20:46:23;5.77;;;1.87;;
5454;SDS011;2750;49.050;9.250;2022-09-09T20:51:28;3.67;;;1.80;;
5454;SDS011;2750;49.050;9.250;2022-09-09T20:56:33;1.70;;;1.50;;
5454;SDS011;2750;49.050;9.250;2022-09-09T21:01:36;3.80;;;1.90;;
5454;SDS011;2750;49.050;9.250;2022-09-09T21:06:39;2.00;;;1.80;;
5454;SDS011;2750;49.050;9.250;2022-09-09T21:11:41;3.07;;;1.80;;
5454;SDS011;2750;49.050;9.250;2022-09-09T21:16:43;3.73;;;2.20;;
5454;SDS011;2750;49.050;9.250;2022-09-09T21:21:46;4.80;;;2.00;;
5454;SDS011;2750;49.050;9.250;2022-09-09T21:26:47;2.93;;;1.57;;
5454;SDS011;2750;49.050;9.250;2022-09-09T21:31:49;4.17;;;2.27;;
5454;SDS011;2750;49.050;9.250;2022-09-09T21:36:53;4.73;;;1.53;;
5454;SDS011;2750;49.050;9.250;2022-09-09T21:41:54;2.20;;;1.70;;
5454;SDS011;2750;49.050;9.250;2022-09-09T21:46:57;3.80;;;2.37;;
5454;SDS011;2750;49.050;9.250;2022-09-09T21:51:59;2.57;;;2.13;;
5454;SDS011;2750;49.050;9.250;2022-09-09T21:57:02;1.87;;;1.73;;
5454;SDS011;2750;49.050;9.250;2022-09-09T22:02:03;3.57;;;2.00;;
5454;SDS011;2750;49.050;9.250;2022-09-09T22:07:06;2.67;;;1.67;;
5454;SDS011;2750;49.050;9.250;2022-09-09T22:12:08;5.97;;;2.10;;
5454;SDS011;2750;49.050;9.250;2022-09-09T22:17:10;2.93;;;2.00;;
5454;SDS011;2750;49.050;9.250;2022-09-09T22:22:13;3.43;;;1.80;;
5454;SDS011;2750;49.050;9.250;2022-09-09T22:27:14;4.27;;;2.60;;
5454;SDS011;2750;49.050;9.250;2022-09-09T22:32:15;3.00;;;1.97;;
5454;SDS011;2750;49.050;9.250;2022-09-09T22:37:19;4.63;;;3.20;;
5454;SDS011;2750;49.050;9.250;2022-09-09T22:42:22;3.83;;;3.00;;
5454;SDS011;2750;49.050;9.250;2022-09-09T22:47:23;3.20;;;2.00;;
5454;SDS011;2750;49.050;9.250;2022-09-09T22:52:27;3.67;;;2.30;;
5454;SDS011;2750;49.050;9.250;2022-09-09T22:57:30;3.57;;;2.20;;
5454;SDS011;2750;49.050;9.250;2022-09-09T23:02:32;3.40;;;1.90;;
5454;SDS011;2750;49.050;9.250;2022-09-09T23:07:35;2.50;;;2.30;;
5454;SDS011;2750;49.050;9.250;2022-09-09T23:12:37;1.83;;;1.60;;
5454;SDS011;2750;49.050;9.250;2022-09-09T23:17:39;4.30;;;2.20;;
5454;SDS011;2750;49.050;9.250;2022-09-09T23:22:42;5.13;;;2.30;;
5454;SDS011;2750;49.050;9.250;2022-09-09T23:27:43;4.30;;;2.40;;
5454;SDS011;2750;49.050;9.250;2022-09-09T23:32:47;3.67;;;1.80;;
5454;SDS011;2750;49.050;9.250;2022-09-09T23:37:50;2.90;;;1.90;;
5454;SDS011;2750;49.050;9.250;2022-09-09T23:42:52;7.67;;;2.50;;
5454;SDS011;2750;49.050;9.250;2022-09-09T23:47:54;2.90;;;2.03;;
5454;SDS011;2750;49.050;9.250;2022-09-09T23:52:57;3.40;;;1.83;;
5454;SDS011;2750;49.050;9.250;2022-09-09T23:57:58;2.10;;;1.70;;
